Time;durP1;ratioP1;P1;durP2;ratioP2;P2;SDS_P1;SDS_P2;PMS_P1;PMS_P2;Temp;Humidity;BMP_temperature;BMP_pressure;BME280_temperature;BME280_humidity;BME280_pressure;Samples;Min_cycle;Max_cycle;Signal;HPM_P1;HPM_P2
2022/09/10 00:00:55;;;;;;;13.05;9.18;;;;;;;20.82;100.00;94416.38;5032329;28;20687;-62
2022/09/10 00:03:21;;;;;;;15.30;10.43;;;;;;;20.78;100.00;94407.44;5014320;28;20300;-61
2022/09/10 00:05:47;;;;;;;12.95;10.02;;;;;;;20.79;100.00;94411.59;5032050;28;20194;-62
2022/09/10 00:08:13;;;;;;;13.27;9.40;;;;;;;20.68;100.00;94394.91;5032318;28;20577;-62
2022/09/10 00:10:40;;;;;;;15.25;10.05;;;;;;;20.63;100.00;94396.47;5014363;28;20218;-61
2022/09/10 00:13:08;;;;;;;13.30;10.15;;;;;;;20.70;100.00;94405.84;5032440;28;20190;-61
2022/09/10 00:15:46;;;;;;;14.02;9.93;;;;;;;20.80;100.00;94414.00;5032002;28;20244;-62
2022/09/10 00:18:14;;;;;;;14.93;8.93;;;;;;;20.75;100.00;94408.63;5032185;28;20219;-61
2022/09/10 00:20:49;;;;;;;14.90;9.13;;;;;;;20.65;100.00;94402.25;5032009;28;20187;-63
2022/09/10 00:23:17;;;;;;;10.45;8.57;;;;;;;20.77;100.00;94405.84;5014171;28;20226;-62
2022/09/10 00:25:44;;;;;;;14.18;9.32;;;;;;;20.70;100.00;94399.88;5031828;28;20182;-63
2022/09/10 00:28:09;;;;;;;10.95;8.18;;;;;;;20.79;100.00;94407.22;5031714;28;20194;-62
2022/09/10 00:30:45;;;;;;;12.93;8.70;;;;;;;20.71;100.00;94398.88;5031600;28;20305;-60
2022/09/10 00:33:12;;;;;;;10.18;8.50;;;;;;;20.57;100.00;94384.34;5032074;28;20284;-63
2022/09/10 00:35:39;;;;;;;10.07;8.70;;;;;;;20.60;100.00;94384.78;5014041;28;20755;-62
2022/09/10 00:38:08;;;;;;;12.25;8.77;;;;;;;20.65;100.00;94391.91;5014087;28;20281;-62
2022/09/10 00:40:33;;;;;;;9.02;8.13;;;;;;;20.51;100.00;94401.44;5031666;28;20748;-61
2022/09/10 00:42:59;;;;;;;10.57;8.35;;;;;;;20.69;100.00;94406.03;5031719;28;20655;-60
2022/09/10 00:45:32;;;;;;;12.00;8.60;;;;;;;20.59;100.00;94395.28;5031646;28;20695;-62
2022/09/10 00:48:10;;;;;;;12.20;9.13;;;;;;;20.53;100.00;94391.72;5031709;28;20399;-61
2022/09/10 00:50:39;;;;;;;11.88;9.00;;;;;;;20.70;100.00;94402.47;5031537;28;20317;-60
2022/09/10 00:53:09;;;;;;;10.70;9.32;;;;;;;20.52;100.00;94394.50;5031304;28;20236;-60
2022/09/10 00:55:39;;;;;;;14.00;9.20;;;;;;;20.61;100.00;94396.69;5031284;28;20218;-60
2022/09/10 00:58:09;;;;;;;13.70;8.88;;;;;;;20.76;100.00;94402.47;5031335;28;20584;-62
2022/09/10 01:00:35;;;;;;;13.30;8.80;;;;;;;20.72;100.00;94387.56;5013754;28;20217;-59
2022/09/10 01:03:02;;;;;;;18.55;9.02;;;;;;;20.73;100.00;94396.88;5031355;28;20621;-60
2022/09/10 01:05:28;;;;;;;11.48;8.57;;;;;;;20.88;100.00;94392.34;5031350;28;20613;-61
2022/09/10 01:07:55;;;;;;;13.40;8.38;;;;;;;20.91;100.00;94407.44;5031392;28;20194;-61
2022/09/10 01:10:33;;;;;;;12.43;8.85;;;;;;;20.90;100.00;94404.06;5013335;28;20221;-61
2022/09/10 01:13:40;;;;;;;12.15;8.45;;;;;;;21.00;100.00;94411.41;5031534;28;20194;-62
2022/09/10 01:16:33;;;;;;;10.75;8.00;;;;;;;20.72;100.00;94387.56;4994480;28;20221;-60
2022/09/10 01:19:23;;;;;;;11.75;8.77;;;;;;;20.71;100.00;94380.78;5031197;28;20222;-61
2022/09/10 01:22:20;;;;;;;10.50;8.48;;;;;;;20.70;100.00;94394.72;5031468;28;20201;-62
2022/09/10 01:24:54;;;;;;;13.63;8.10;;;;;;;20.75;100.00;94392.31;5031218;28;20680;-60
2022/09/10 01:27:25;;;;;;;13.27;8.63;;;;;;;20.83;100.00;94392.94;5031430;28;20198;-61
2022/09/10 01:30:03;;;;;;;11.50;8.88;;;;;;;20.87;100.00;94390.72;5030957;28;20222;-60
2022/09/10 01:32:56;;;;;;;10.65;9.18;;;;;;;20.76;100.00;94378.41;5031299;28;20202;-63
2022/09/10 01:35:50;;;;;;;12.15;8.68;;;;;;;21.04;100.00;94381.63;5013439;28;20244;-63
2022/09/10 01:38:34;;;;;;;11.15;8.45;;;;;;;20.81;100.00;94355.34;5030856;28;20170;-60
2022/09/10 01:41:01;;;;;;;11.98;8.57;;;;;;;20.69;100.00;94356.94;5030784;28;20193;-63
2022/09/10 01:43:27;;;;;;;9.95;8.63;;;;;;;20.86;100.00;94369.28;5030923;28;20259;-62
2022/09/10 01:46:08;;;;;;;9.88;8.68;;;;;;;20.91;100.00;94384.97;5031229;28;20193;-63
2022/09/10 01:48:59;;;;;;;16.25;9.25;;;;;;;20.79;100.00;94372.84;5034355;28;20702;-62
2022/09/10 01:51:53;;;;;;;14.65;8.60;;;;;;;20.62;100.00;94375.03;5016658;28;20246;-60
2022/09/10 01:54:35;;;;;;;12.05;8.45;;;;;;;20.54;100.00;94358.94;5034082;28;20594;-61
2022/09/10 01:57:22;;;;;;;12.25;9.40;;;;;;;20.46;100.00;94359.91;5034441;28;20190;-62
2022/09/10 01:59:53;;;;;;;11.45;8.82;;;;;;;20.36;100.00;94367.22;5034179;28;20281;-60
2022/09/10 02:02:27;;;;;;;10.98;8.98;;;;;;;20.55;100.00;94374.22;5034570;28;20564;-61
2022/09/10 02:04:54;;;;;;;13.45;9.10;;;;;;;20.60;100.00;94389.94;5034087;28;20216;-61
2022/09/10 02:07:22;;;;;;;9.27;8.35;;;;;;;20.42;100.00;94378.59;5034362;28;20652;-60
2022/09/10 02:09:49;;;;;;;11.45;9.38;;;;;;;20.45;100.00;94378.19;5034162;28;20217;-62
2022/09/10 02:12:20;;;;;;;9.25;8.35;;;;;;;20.50;100.00;94378.41;5016336;28;20201;-62
2022/09/10 02:14:50;;;;;;;10.90;9.25;;;;;;;20.29;100.00;94378.53;5033895;28;20238;-61
2022/09/10 02:17:16;;;;;;;13.45;9.45;;;;;;;20.33;100.00;94380.53;5033995;28;20221;-61
2022/09/10 02:19:45;;;;;;;12.02;8.95;;;;;;;20.53;100.00;94388.31;5033931;28;20688;-62
2022/09/10 02:22:14;;;;;;;9.48;8.57;;;;;;;20.49;100.00;94387.13;5033749;28;20194;-61
2022/09/10 02:24:43;;;;;;;15.38;8.98;;;;;;;20.46;100.00;94382.38;5033769;28;20209;-62
2022/09/10 02:27:10;;;;;;;12.65;9.15;;;;;;;20.40;100.00;94375.41;5016099;28;20678;-62
2022/09/10 02:29:37;;;;;;;12.60;9.45;;;;;;;20.43;100.00;94378.38;5033720;28;20221;-62
2022/09/10 02:32:05;;;;;;;11.65;9.70;;;;;;;20.54;100.00;94382.19;5033805;28;20194;-62
2022/09/10 02:34:30;;;;;;;12.70;9.25;;;;;;;20.47;100.00;94373.59;5033805;28;20198;-60
2022/09/10 02:36:56;;;;;;;10.98;8.80;;;;;;;20.45;100.00;94363.47;5015857;28;20205;-60
2022/09/10 02:39:22;;;;;;;33.17;25.48;;;;;;;20.29;100.00;94365.63;5033719;28;20214;-62
2022/09/10 02:41:47;;;;;;;14.77;10.52;;;;;;;20.56;100.00;94380.19;5015940;28;20745;-60
2022/09/10 02:44:13;;;;;;;15.85;13.88;;;;;;;20.42;100.00;94381.94;5033478;28;20210;-60
2022/09/10 02:46:39;;;;;;;15.73;10.30;;;;;;;20.41;100.00;94385.53;5033687;28;20194;-62
2022/09/10 02:49:05;;;;;;;11.00;9.23;;;;;;;20.43;100.00;94385.31;5033472;28;20198;-62
2022/09/10 02:51:30;;;;;;;16.08;10.82;;;;;;;20.44;100.00;94379.97;5033641;28;20218;-63
2022/09/10 02:53:56;;;;;;;13.18;11.07;;;;;;;20.32;100.00;94371.19;5033507;28;20289;-60
2022/09/10 02:56:22;;;;;;;13.68;9.90;;;;;;;20.42;100.00;94381.16;5033632;28;20224;-61
2022/09/10 02:58:49;;;;;;;11.65;9.77;;;;;;;20.21;100.00;94381.31;5031791;28;20663;-61
2022/09/10 03:01:19;;;;;;;12.60;9.85;;;;;;;20.27;100.00;94383.09;5033275;28;20232;-60
2022/09/10 03:03:53;;;;;;;11.52;9.35;;;;;;;20.46;100.00;94382.38;5033396;28;20256;-61
2022/09/10 03:06:20;;;;;;;16.52;9.93;;;;;;;20.39;100.00;94386.72;5033105;28;20571;-61
2022/09/10 03:08:47;;;;;;;14.85;9.95;;;;;;;20.37;100.00;94388.69;5033197;28;20291;-60
2022/09/10 03:11:15;;;;;;;13.25;9.85;;;;;;;20.31;100.00;94386.88;5033042;28;20225;-60
2022/09/10 03:13:44;;;;;;;13.55;9.38;;;;;;;20.38;100.00;94385.13;5033239;28;20364;-60
2022/09/10 03:16:14;;;;;;;13.93;9.45;;;;;;;20.39;100.00;94389.28;5033211;28;20201;-63
2022/09/10 03:18:40;;;;;;;14.05;10.48;;;;;;;20.53;100.00;94396.06;5015204;28;20206;-60
2022/09/10 03:21:17;;;;;;;14.38;10.23;;;;;;;20.44;100.00;94389.50;5033140;28;20198;-61
2022/09/10 03:23:45;;;;;;;11.52;9.77;;;;;;;20.18;100.00;94386.84;5032848;28;20210;-62
2022/09/10 03:26:13;;;;;;;18.67;10.05;;;;;;;20.04;100.00;94380.81;5015246;28;20249;-60
2022/09/10 03:28:39;;;;;;;11.32;9.18;;;;;;;20.09;100.00;94389.59;5032728;28;20221;-61
2022/09/10 03:31:05;;;;;;;11.45;9.02;;;;;;;20.42;100.00;94397.44;5015103;28;20214;-61
2022/09/10 03:33:31;;;;;;;12.32;9.05;;;;;;;20.46;100.00;94388.31;5015564;28;20178;-61
2022/09/10 03:35:57;;;;;;;14.20;9.82;;;;;;;20.44;100.00;94382.53;5014999;28;20582;-60
2022/09/10 03:38:22;;;;;;;13.82;9.90;;;;;;;20.42;100.00;94376.00;5033001;28;20194;-63
2022/09/10 03:40:49;;;;;;;14.63;10.05;;;;;;;20.38;100.00;94385.91;5014914;28;20179;-62
2022/09/10 03:43:16;;;;;;;11.98;9.82;;;;;;;20.30;100.00;94372.41;5014932;28;20190;-62
2022/09/10 03:45:43;;;;;;;13.82;10.48;;;;;;;20.02;100.00;94364.75;5014898;28;20269;-63
2022/09/10 03:48:08;;;;;;;13.90;10.00;;;;;;;20.09;100.00;94379.28;5014803;28;20194;-62
2022/09/10 03:50:34;;;;;;;11.38;9.30;;;;;;;20.33;100.00;94383.13;5032452;28;20296;-63
2022/09/10 03:53:02;;;;;;;12.18;9.35;;;;;;;20.33;100.00;94372.00;5032401;28;20217;-62
2022/09/10 03:55:29;;;;;;;14.27;9.93;;;;;;;20.17;100.00;94364.59;5032289;28;20210;-59
2022/09/10 03:57:55;;;;;;;14.45;9.88;;;;;;;20.36;100.00;94371.63;5032895;28;20198;-60
2022/09/10 04:00:21;;;;;;;11.93;9.73;;;;;;;20.40;100.00;94368.44;5014601;28;20210;-62
2022/09/10 04:02:47;;;;;;;14.15;10.45;;;;;;;20.24;100.00;94342.22;5032732;28;20201;-62
2022/09/10 04:05:13;;;;;;;15.20;10.05;;;;;;;20.06;100.00;94340.94;5014237;28;20202;-61
2022/09/10 04:07:38;;;;;;;14.25;9.68;;;;;;;20.10;100.00;94352.47;5031399;28;20218;-63
2022/09/10 04:10:04;;;;;;;14.25;9.63;;;;;;;20.17;100.00;94367.16;5013900;28;20238;-63
2022/09/10 04:12:30;;;;;;;13.82;10.20;;;;;;;20.15;100.00;94374.31;5032431;28;20189;-60
2022/09/10 04:14:56;;;;;;;13.63;10.25;;;;;;;20.21;100.00;94369.19;5032172;28;20267;-63
2022/09/10 04:17:23;;;;;;;17.05;10.70;;;;;;;20.20;100.00;94361.66;5032503;28;20213;-62
2022/09/10 04:19:49;;;;;;;14.57;10.13;;;;;;;20.10;100.00;94364.56;5014359;28;20204;-61
2022/09/10 04:22:15;;;;;;;13.80;10.75;;;;;;;20.45;100.00;94384.16;5014474;28;20195;-61
2022/09/10 04:24:41;;;;;;;13.70;10.13;;;;;;;20.39;100.00;94371.22;5031948;28;20266;-62
2022/09/10 04:27:06;;;;;;;12.38;10.15;;;;;;;20.40;100.00;94385.72;5032348;28;20647;-61
2022/09/10 04:29:31;;;;;;;14.68;10.93;;;;;;;20.27;100.00;94385.69;5030771;28;20604;-61
2022/09/10 04:31:57;;;;;;;15.73;10.35;;;;;;;20.14;100.00;94375.31;5032003;28;20239;-61
2022/09/10 04:34:22;;;;;;;13.45;10.57;;;;;;;19.98;100.00;94394.50;5032032;28;20213;-62
2022/09/10 04:36:48;;;;;;;19.88;11.40;;;;;;;20.00;100.00;94393.31;5013989;28;20565;-62
2022/09/10 04:39:15;;;;;;;16.17;11.20;;;;;;;19.95;100.00;94395.72;5013934;28;20214;-60
2022/09/10 04:41:40;;;;;;;15.73;10.95;;;;;;;19.85;100.00;94397.84;5031874;28;20193;-60
2022/09/10 04:44:06;;;;;;;14.68;10.35;;;;;;;19.85;100.00;94392.69;5031695;28;20210;-59
2022/09/10 04:46:31;;;;;;;17.88;10.85;;;;;;;20.00;100.00;94388.16;5031797;28;20658;-61
2022/09/10 04:48:57;;;;;;;12.05;9.55;;;;;;;20.25;100.00;94379.94;5031439;28;20292;-62
2022/09/10 04:51:22;;;;;;;14.77;10.40;;;;;;;20.14;100.00;94376.09;5031648;28;20771;-60
2022/09/10 04:53:48;;;;;;;16.55;10.65;;;;;;;20.06;100.00;94382.22;5031585;28;20695;-61
2022/09/10 04:56:13;;;;;;;13.13;9.88;;;;;;;20.28;100.00;94377.75;5031756;28;20194;-61
2022/09/10 04:58:39;;;;;;;15.80;10.90;;;;;;;20.38;100.00;94370.41;5031606;28;20258;-62
2022/09/10 05:01:05;;;;;;;14.43;10.15;;;;;;;20.20;100.00;94356.50;5013583;28;20244;-62
2022/09/10 05:03:31;;;;;;;15.35;11.35;;;;;;;20.27;100.00;94372.78;5031470;28;20655;-59
2022/09/10 05:05:56;;;;;;;15.48;10.65;;;;;;;20.34;100.00;94373.59;5031277;28;20244;-60
2022/09/10 05:08:22;;;;;;;14.10;10.32;;;;;;;20.21;100.00;94363.22;5031299;28;20182;-61
2022/09/10 05:10:48;;;;;;;14.88;10.63;;;;;;;19.91;100.00;94373.06;5031117;28;20213;-62
2022/09/10 05:13:13;;;;;;;13.25;10.32;;;;;;;20.29;100.00;94387.09;5031329;28;20189;-61
2022/09/10 05:15:40;;;;;;;19.65;11.05;;;;;;;20.11;100.00;94373.91;5030100;28;20186;-61
2022/09/10 05:18:06;;;;;;;16.15;11.13;;;;;;;20.13;100.00;94371.13;5031172;28;20284;-63
2022/09/10 05:20:32;;;;;;;17.55;10.35;;;;;;;20.36;100.00;94389.69;5012601;28;20289;-61
2022/09/10 05:22:58;;;;;;;14.07;10.80;;;;;;;20.44;100.00;94392.88;5030899;28;20293;-62
2022/09/10 05:25:23;;;;;;;13.52;10.68;;;;;;;20.44;100.00;94392.09;5030844;28;20253;-62
2022/09/10 05:27:50;;;;;;;12.43;11.02;;;;;;;20.48;100.00;94404.41;5031410;28;20187;-62
2022/09/10 05:30:17;;;;;;;17.00;12.43;;;;;;;20.20;100.00;94388.25;5031028;28;20226;-63
2022/09/10 05:32:43;;;;;;;21.60;10.65;;;;;;;20.05;100.00;94396.13;5029943;28;20564;-62
2022/09/10 05:35:08;;;;;;;18.13;11.13;;;;;;;20.10;100.00;94408.44;5030925;28;20214;-62
2022/09/10 05:37:34;;;;;;;14.15;11.93;;;;;;;20.12;100.00;94411.63;5030979;28;20236;-62
2022/09/10 05:40:01;;;;;;;15.90;11.10;;;;;;;20.43;100.00;94414.53;5030787;28;20240;-59
2022/09/10 05:42:27;;;;;;;18.27;11.73;;;;;;;20.72;100.00;94416.78;5031097;28;20194;-61
2022/09/10 05:44:52;;;;;;;12.00;10.27;;;;;;;20.61;100.00;94395.88;5030645;28;20244;-62
2022/09/10 05:47:18;;;;;;;16.98;11.25;;;;;;;20.54;100.00;94401.03;5031156;28;20269;-60
2022/09/10 05:49:46;;;;;;;13.02;10.57;;;;;;;20.45;100.00;94388.50;5013060;28;20214;-61
2022/09/10 05:52:12;;;;;;;14.43;10.27;;;;;;;20.70;100.00;94394.72;5013118;28;20190;-62
2022/09/10 05:54:37;;;;;;;12.95;10.25;;;;;;;20.60;100.00;94396.88;5030673;28;20240;-62
2022/09/10 05:57:03;;;;;;;11.23;10.07;;;;;;;20.78;100.00;94418.56;5030881;28;20190;-64
2022/09/10 05:59:28;;;;;;;12.63;10.00;;;;;;;20.82;100.00;94434.47;5030731;28;20225;-63
2022/09/10 06:01:54;;;;;;;14.05;10.20;;;;;;;20.81;100.00;94417.38;5030689;28;20540;-61
2022/09/10 06:04:20;;;;;;;12.43;10.75;;;;;;;20.72;100.00;94413.41;5030610;28;20212;-62
2022/09/10 06:06:46;;;;;;;17.55;11.82;;;;;;;20.57;100.00;94413.56;5030426;28;20236;-62
2022/09/10 06:09:12;;;;;;;12.70;10.10;;;;;;;20.66;100.00;94403.84;5030367;28;20207;-62
2022/09/10 06:11:38;;;;;;;14.55;10.15;;;;;;;20.88;100.00;94421.56;5030670;28;20279;-62
2022/09/10 06:14:04;;;;;;;18.10;9.75;;;;;;;21.07;100.00;94421.81;5030564;28;20305;-61
2022/09/10 06:16:30;;;;;;;12.35;10.50;;;;;;;21.06;100.00;94418.41;5030590;28;20183;-58
2022/09/10 06:18:57;;;;;;;13.93;10.35;;;;;;;21.20;100.00;94422.59;5012505;28;20262;-62
2022/09/10 06:21:23;;;;;;;16.10;10.43;;;;;;;21.27;100.00;94428.53;5012690;28;20202;-62
2022/09/10 06:23:53;;;;;;;12.02;9.43;;;;;;;21.21;100.00;94420.81;5030083;28;20233;-60
2022/09/10 06:26:19;;;;;;;13.38;10.23;;;;;;;21.28;100.00;94431.91;5030399;28;20202;-61
2022/09/10 06:28:46;;;;;;;12.70;9.68;;;;;;;21.28;100.00;94434.50;5030228;28;20356;-62
2022/09/10 06:31:16;;;;;;;14.27;9.77;;;;;;;21.32;100.00;94420.97;5030306;28;20217;-59
2022/09/10 06:33:42;;;;;;;12.63;8.50;;;;;;;21.64;100.00;94486.59;5032878;28;20198;-62
2022/09/10 06:36:09;;;;;;;16.58;9.63;;;;;;;21.73;100.00;94499.13;5033639;28;20226;-63
2022/09/10 06:38:35;;;;;;;12.40;9.15;;;;;;;21.60;99.35;94512.09;5033593;28;20585;-61
2022/09/10 06:41:04;;;;;;;19.00;10.27;;;;;;;21.29;100.00;94469.72;5033457;28;20209;-63
2022/09/10 06:43:38;;;;;;;21.10;10.05;;;;;;;21.31;100.00;94450.41;5033410;28;20190;-63
2022/09/10 06:46:12;;;;;;;16.33;10.35;;;;;;;21.18;100.00;94453.00;5033508;28;20193;-60
2022/09/10 06:48:41;;;;;;;13.90;10.63;;;;;;;20.96;100.00;94430.91;5033427;28;20556;-60
2022/09/10 06:51:08;;;;;;;17.25;10.07;;;;;;;20.92;100.00;94404.66;5033429;28;20706;-61
2022/09/10 06:53:35;;;;;;;15.82;10.40;;;;;;;20.89;100.00;94396.50;5033359;28;20278;-60
2022/09/10 06:56:01;;;;;;;14.43;10.88;;;;;;;20.98;100.00;94407.44;5033393;28;20231;-61
2022/09/10 06:58:30;;;;;;;11.27;10.13;;;;;;;21.14;100.00;94418.22;5033077;28;20279;-62
2022/09/10 07:00:56;;;;;;;17.90;11.60;;;;;;;21.25;100.00;94437.50;5015455;28;20219;-63
2022/09/10 07:03:22;;;;;;;18.80;10.93;;;;;;;21.37;100.00;94431.50;5015406;28;20684;-62
2022/09/10 07:05:48;;;;;;;16.25;10.73;;;;;;;21.34;100.00;94421.56;5032916;28;20671;-61
2022/09/10 07:08:16;;;;;;;14.50;11.52;;;;;;;21.32;100.00;94402.06;5033116;28;20188;-62
2022/09/10 07:10:43;;;;;;;15.80;11.98;;;;;;;21.45;100.00;94425.34;5015139;28;20230;-62
2022/09/10 07:13:09;;;;;;;16.88;11.40;;;;;;;21.68;100.00;94446.38;5033040;28;20714;-60
2022/09/10 07:15:35;;;;;;;19.35;10.63;;;;;;;21.80;100.00;94451.72;5032858;28;20202;-61
2022/09/10 07:18:02;;;;;;;13.05;10.32;;;;;;;21.79;100.00;94460.50;5033298;28;20248;-62
2022/09/10 07:20:28;;;;;;;18.02;10.50;;;;;;;21.95;100.00;94473.84;5032679;28;20291;-61
2022/09/10 07:22:58;;;;;;;14.57;10.07;;;;;;;22.16;100.00;94485.72;5033268;28;20182;-60
2022/09/10 07:25:25;;;;;;;21.15;10.40;;;;;;;22.29;100.00;94472.72;5032858;28;20218;-60
2022/09/10 07:27:52;;;;;;;11.38;9.38;;;;;;;22.50;97.58;94508.72;5032978;28;20183;-61
2022/09/10 07:30:21;;;;;;;18.02;10.35;;;;;;;22.64;98.05;94484.34;5032576;28;20271;-63
2022/09/10 07:32:48;;;;;;;34.22;23.55;;;;;;;22.62;95.96;94501.09;5015203;28;20194;-61
2022/09/10 07:35:15;;;;;;;12.63;9.02;;;;;;;22.96;94.14;94531.84;5032587;28;20210;-63
2022/09/10 07:37:40;;;;;;;13.77;9.70;;;;;;;23.17;93.73;94531.50;5032509;28;20225;-62
2022/09/10 07:40:07;;;;;;;15.65;10.00;;;;;;;23.25;93.79;94529.44;5032944;28;20755;-63
2022/09/10 07:42:34;;;;;;;17.83;10.15;;;;;;;23.31;92.25;94548.59;5033351;28;20265;-61
2022/09/10 07:45:00;;;;;;;12.63;10.60;;;;;;;23.61;89.55;94570.38;5014425;28;20252;-63
2022/09/10 07:47:26;;;;;;;11.68;9.10;;;;;;;23.72;88.51;94572.25;5032879;28;20273;-61
2022/09/10 07:49:51;;;;;;;13.25;9.50;;;;;;;23.81;86.10;94602.16;5015123;28;20308;-62
2022/09/10 07:52:21;;;;;;;13.73;7.85;;;;;;;23.83;85.22;94612.31;5033256;28;20194;-63
2022/09/10 07:54:46;;;;;;;14.82;8.48;;;;;;;23.92;84.53;94614.44;5032532;28;20648;-62
2022/09/10 07:57:12;;;;;;;11.60;8.23;;;;;;;24.04;82.55;94630.16;5032653;28;20251;-60
2022/09/10 07:59:37;;;;;;;11.35;9.40;;;;;;;24.04;82.59;94614.56;5039801;22;20241;-61
2022/09/10 08:02:05;;;;;;;22.77;15.50;;;;;;;24.16;80.59;94654.44;5032417;28;20182;-62
2022/09/10 08:04:31;;;;;;;12.93;8.20;;;;;;;24.36;79.28;94649.84;5032160;28;20210;-61
2022/09/10 08:06:57;;;;;;;12.15;8.55;;;;;;;24.68;76.90;94689.56;5032221;28;20190;-62
2022/09/10 08:09:23;;;;;;;16.58;8.80;;;;;;;24.48;78.50;94639.56;5032334;28;20216;-60
2022/09/10 08:11:49;;;;;;;19.63;10.18;;;;;;;24.10;80.05;94603.31;5032179;28;20204;-64
2022/09/10 08:14:15;;;;;;;16.50;9.07;;;;;;;24.54;81.90;94576.31;5014244;28;20297;-62
2022/09/10 08:16:40;;;;;;;14.55;8.27;;;;;;;24.70;81.01;94594.72;5032254;28;20281;-62
2022/09/10 08:19:06;;;;;;;16.08;8.98;;;;;;;24.52;79.98;94607.72;5032290;28;20300;-63
2022/09/10 08:21:32;;;;;;;14.00;8.30;;;;;;;24.70;77.91;94643.34;5032090;28;20198;-60
2022/09/10 08:23:58;;;;;;;148.88;18.80;;;;;;;24.91;76.97;94646.31;5031987;28;20214;-62
2022/09/10 08:26:32;;;;;;;94.78;16.30;;;;;;;24.87;77.91;94624.34;5031991;28;20190;-63
2022/09/10 08:28:58;;;;;;;39.58;10.43;;;;;;;24.74;77.25;94641.94;5031877;28;20202;-62
2022/09/10 08:31:25;;;;;;;45.05;12.25;;;;;;;24.77;76.34;94647.47;5031805;28;20604;-63
2022/09/10 08:33:53;;;;;;;12.27;8.13;;;;;;;25.33;74.81;94667.25;5032070;28;20224;-61
2022/09/10 08:36:20;;;;;;;29.80;10.15;;;;;;;25.56;74.00;94664.75;5031765;28;20260;-63
2022/09/10 08:38:47;;;;;;;44.75;10.85;;;;;;;25.54;74.88;94648.56;5014324;28;20202;-63
2022/09/10 08:41:22;;;;;;;16.30;8.93;;;;;;;25.74;73.73;94675.13;5031668;28;20186;-60
2022/09/10 08:43:52;;;;;;;19.13;9.48;;;;;;;25.95;73.30;94671.22;5031802;28;20247;-62
2022/09/10 08:46:22;;;;;;;14.32;8.90;;;;;;;25.99;73.55;94648.91;5013903;28;20672;-60
2022/09/10 08:49:10;;;;;;;17.52;11.50;;;;;;;25.56;75.43;94608.25;5031439;28;20206;-62
2022/09/10 08:51:51;;;;;;;21.13;10.30;;;;;;;25.66;73.35;94644.97;5013631;28;20209;-63
2022/09/10 08:54:24;;;;;;;14.10;8.85;;;;;;;25.82;73.94;94627.13;5031229;28;20293;-61
2022/09/10 08:56:52;;;;;;;16.63;9.63;;;;;;;26.01;73.36;94642.44;5030390;28;20205;-60
2022/09/10 08:59:41;;;;;;;15.35;10.52;;;;;;;25.99;73.23;94641.88;5031500;28;20264;-63
2022/09/10 09:02:22;;;;;;;16.00;8.77;;;;;;;26.04;71.91;94662.84;5031395;28;20206;-63
2022/09/10 09:05:04;;;;;;;15.45;10.13;;;;;;;25.91;72.25;94652.63;5013477;28;20214;-63
2022/09/10 09:07:38;;;;;;;17.75;11.45;;;;;;;25.83;75.35;94584.41;5030169;28;20292;-61
2022/09/10 09:10:18;;;;;;;15.43;10.20;;;;;;;25.63;74.85;94592.53;5013312;28;20248;-63
2022/09/10 09:12:55;;;;;;;24.35;11.60;;;;;;;25.30;75.76;94573.97;5031337;28;20197;-62
2022/09/10 09:15:36;;;;;;;17.95;13.27;;;;;;;25.04;75.93;94571.72;5013389;28;20715;-63
2022/09/10 09:18:09;;;;;;;17.88;10.77;;;;;;;24.97;77.02;94536.19;5030297;28;20600;-63
2022/09/10 09:21:14;;;;;;;17.05;9.88;;;;;;;25.05;76.92;94542.09;5013849;28;20300;-62
2022/09/10 09:23:55;;;;;;;22.85;9.43;;;;;;;24.98;78.23;94506.56;5019930;28;20246;-62
2022/09/10 09:26:36;;;;;;;17.10;9.98;;;;;;;24.90;77.30;94519.06;5013471;28;20692;-63
2022/09/10 09:29:23;;;;;;;61.05;13.77;;;;;;;24.90;76.80;94526.88;5013182;28;20291;-63
2022/09/10 09:31:53;;;;;;;25.23;14.25;;;;;;;24.80;77.28;94513.63;5030915;28;20222;-62
2022/09/10 09:34:28;;;;;;;16.40;9.65;;;;;;;24.65;77.87;94500.97;5030816;28;20698;-62
2022/09/10 09:36:57;;;;;;;13.82;8.82;;;;;;;24.67;77.61;94495.53;5030885;28;20647;-62
2022/09/10 09:39:29;;;;;;;12.73;10.20;;;;;;;24.83;77.80;94495.75;5020429;22;20283;-62
2022/09/10 09:42:36;;;;;;;12.00;9.02;;;;;;;24.82;78.44;94480.38;5030937;28;20212;-62
2022/09/10 09:45:15;;;;;;;15.48;9.27;;;;;;;24.84;78.49;94473.16;5020008;28;20233;-63
2022/09/10 09:47:44;;;;;;;15.90;9.23;;;;;;;24.95;78.16;94470.56;5030671;28;20196;-63
2022/09/10 09:50:10;;;;;;;22.95;10.18;;;;;;;24.97;77.00;94484.16;5030503;28;20217;-61
2022/09/10 09:52:37;;;;;;;14.25;9.85;;;;;;;24.98;77.09;94483.16;5030643;28;20178;-62
2022/09/10 09:55:11;;;;;;;16.10;13.18;;;;;;;25.08;75.83;94500.81;5030894;28;20245;-63
2022/09/10 09:57:36;;;;;;;13.85;8.40;;;;;;;25.52;73.71;94547.22;5013030;28;20194;-63
2022/09/10 10:00:34;;;;;;;19.23;9.02;;;;;;;25.72;74.10;94529.47;5030792;28;20267;-63
2022/09/10 10:03:06;;;;;;;12.73;8.48;;;;;;;26.59;72.02;94582.50;5013065;28;20191;-62
2022/09/10 10:05:31;;;;;;;18.75;8.73;;;;;;;27.23;67.34;94657.16;5030574;28;20206;-63
2022/09/10 10:07:57;;;;;;;8.93;7.70;;;;;;;27.30;65.20;94673.47;5032031;28;20190;-62
2022/09/10 10:10:25;;;;;;;14.75;8.23;;;;;;;27.76;64.34;94682.97;5033868;28;20209;-63
2022/09/10 10:12:52;;;;;;;15.02;8.82;;;;;;;28.18;61.62;94711.19;5033880;28;20269;-63
2022/09/10 10:15:40;;;;;;;13.15;8.52;;;;;;;28.46;61.24;94707.72;5033572;28;20213;-63
2022/09/10 10:18:21;;;;;;;12.48;8.25;;;;;;;28.96;60.49;94723.38;5033965;28;20200;-63
2022/09/10 10:20:48;;;;;;;16.73;7.70;;;;;;;29.23;57.92;94755.72;5033861;28;20237;-65
2022/09/10 10:23:37;;;;;;;9.73;7.53;;;;;;;29.57;57.44;94731.00;5015929;28;20202;-62
2022/09/10 10:26:29;;;;;;;16.00;10.48;;;;;;;30.18;57.13;94713.31;5015970;28;20267;-61
2022/09/10 10:28:58;;;;;;;12.05;7.93;;;;;;;30.75;55.01;94760.75;5033738;28;20266;-62
2022/09/10 10:31:34;;;;;;;11.40;7.50;;;;;;;30.85;52.88;94801.03;5033397;28;20210;-62
2022/09/10 10:34:19;;;;;;;14.93;8.88;;;;;;;31.16;53.05;94771.31;5015821;28;20213;-62
2022/09/10 10:36:58;;;;;;;29.27;18.77;;;;;;;31.09;52.19;94775.22;5033644;28;20185;-60
2022/09/10 10:39:48;;;;;;;11.65;8.30;;;;;;;31.58;51.47;94799.41;5016045;28;20213;-63
2022/09/10 10:42:20;;;;;;;14.23;7.72;;;;;;;31.67;49.99;94814.47;5033420;28;20202;-62
2022/09/10 10:45:11;;;;;;;13.52;8.13;;;;;;;31.40;52.13;94740.19;5033721;28;20210;-60
2022/09/10 10:47:37;;;;;;;16.52;8.70;;;;;;;30.96;52.80;94702.91;5033180;28;20186;-61
2022/09/10 10:50:24;;;;;;;16.08;7.97;;;;;;;30.41;53.76;94679.66;5033316;28;20226;-60
2022/09/10 10:53:08;;;;;;;22.35;8.15;;;;;;;30.12;54.91;94636.38;5015539;28;20196;-62
2022/09/10 10:55:56;;;;;;;13.77;7.88;;;;;;;29.77;55.72;94610.66;5033397;28;20312;-61
2022/09/10 10:58:48;;;;;;;11.85;8.90;;;;;;;29.56;57.22;94559.06;5015335;28;20641;-61
2022/09/10 11:01:21;;;;;;;15.55;8.13;;;;;;;30.11;56.48;94594.66;5015455;28;20723;-62
2022/09/10 11:04:24;;;;;;;18.40;8.07;;;;;;;30.84;52.84;94677.84;5033432;28;20214;-61
2022/09/10 11:07:04;;;;;;;21.70;7.88;;;;;;;31.20;53.26;94650.72;5033158;28;20200;-61
2022/09/10 11:09:40;;;;;;;18.77;8.40;;;;;;;31.01;52.53;94676.63;5033467;28;20209;-64
2022/09/10 11:12:25;;;;;;;14.25;7.85;;;;;;;31.24;50.49;94733.25;5033189;28;20296;-61
2022/09/10 11:15:00;;;;;;;11.13;7.63;;;;;;;31.58;49.87;94746.81;5033566;28;20214;-63
2022/09/10 11:17:38;;;;;;;11.25;7.22;;;;;;;32.04;49.26;94753.81;5015294;28;20659;-61
2022/09/10 11:20:22;;;;;;;9.65;7.10;;;;;;;32.46;48.29;94774.72;5031515;28;20264;-63
2022/09/10 11:23:13;;;;;;;19.52;9.27;;;;;;;32.01;48.82;94749.91;5032818;28;20281;-63
2022/09/10 11:25:56;;;;;;;13.10;8.52;;;;;;;31.00;51.09;94687.41;5002696;28;20207;-61
2022/09/10 11:28:31;;;;;;;15.60;7.68;;;;;;;29.66;53.41;94648.28;5032738;28;20190;-62
2022/09/10 11:31:08;;;;;;;25.42;6.75;;;;;;;27.28;65.35;94377.84;5032575;28;20595;-60
2022/09/10 11:34:11;;;;;;;24.17;5.60;;;;;;;25.49;72.84;94276.88;5032670;28;20221;-62